Terminal Aerodrome Forecast
Issued by NWS

Home | Current Version | Previous Version | Text Only | Print | Product List | Glossary On
Versions: 1 2 3 4 5 6 7 8 9 10 11 12 13
000
FTUS44 KBMX 301100
TAFTOI
TAF
KTOI 301135Z 3012/3112 00000KT P6SM BKN120
      TEMPO 3012/3014 4SM BR BKN007
     FM301500 17007KT P6SM BKN025 BKN100
     FM301600 20010KT P6SM VCTS SCT050CB BKN100
     FM310100 VRB03KT P6SM SCT050 BKN200=

USA.gov is the U.S. government's official web portal to all federal, state and local government web resources and services.